Time;durP1;ratioP1;P1;durP2;ratioP2;P2;SDS_P1;SDS_P2;PMS_P1;PMS_P2;Temp;Humidity;BMP_temperature;BMP_pressure;BME280_temperature;BME280_humidity;BME280_pressure;Samples;Min_cycle;Max_cycle;Signal;HPM_P1;HPM_P2
2022/03/20 00:01:13;;;;;;;4.50;1.30;;;3.70;92.30;;;;;;5002759;28;20247;-66
2022/03/20 00:03:40;;;;;;;2.30;1.23;;;3.70;92.10;;;;;;5007402;28;20299;-66
2022/03/20 00:06:06;;;;;;;4.23;1.30;;;3.70;92.40;;;;;;5005794;28;20185;-66
2022/03/20 00:08:32;;;;;;;2.37;1.40;;;3.70;92.40;;;;;;5005252;28;20216;-66
2022/03/20 00:11:01;;;;;;;2.30;1.33;;;3.70;91.90;;;;;;5019932;28;20196;-67
2022/03/20 00:13:29;;;;;;;3.40;1.57;;;3.70;92.10;;;;;;5004521;28;20255;-66
2022/03/20 00:15:57;;;;;;;2.63;1.30;;;3.80;92.30;;;;;;5004576;28;20193;-66
2022/03/20 00:18:26;;;;;;;4.53;1.57;;;3.70;92.50;;;;;;5021681;28;20195;-66
2022/03/20 00:20:59;;;;;;;2.27;1.30;;;3.60;91.80;;;;;;5004570;28;20295;-66
2022/03/20 00:23:27;;;;;;;4.17;1.40;;;3.60;91.90;;;;;;5015341;28;20733;-66
2022/03/20 00:25:56;;;;;;;5.90;1.77;;;3.60;92.30;;;;;;4999325;28;20562;-67
2022/03/20 00:28:25;;;;;;;4.70;1.67;;;3.60;91.50;;;;;;5004812;28;20216;-66
2022/03/20 00:30:54;;;;;;;2.50;1.60;;;3.60;92.20;;;;;;5006627;28;20193;-65
2022/03/20 00:33:20;;;;;;;2.63;1.50;;;3.60;92.60;;;;;;5005764;28;20203;-66
2022/03/20 00:35:47;;;;;;;1.47;1.17;;;3.60;92.90;;;;;;5006059;28;20648;-66
2022/03/20 00:38:14;;;;;;;3.53;1.30;;;3.60;93.40;;;;;;5000739;28;20192;-66
2022/03/20 00:40:42;;;;;;;3.97;1.53;;;3.70;93.00;;;;;;5008130;28;20850;-66
2022/03/20 00:43:09;;;;;;;2.60;1.40;;;3.60;92.90;;;;;;5022075;28;20315;-65
2022/03/20 00:45:35;;;;;;;3.00;1.40;;;3.60;92.80;;;;;;5006023;28;20188;-66
2022/03/20 00:48:03;;;;;;;3.23;1.53;;;3.60;93.60;;;;;;5021541;28;20289;-65
2022/03/20 00:50:30;;;;;;;2.03;1.27;;;3.50;94.30;;;;;;5003377;28;20197;-66
2022/03/20 00:52:57;;;;;;;6.20;1.30;;;3.50;93.20;;;;;;5005050;28;20199;-66
2022/03/20 00:55:24;;;;;;;4.33;2.10;;;3.50;93.90;;;;;;5022160;28;20189;-66
2022/03/20 00:57:50;;;;;;;3.73;1.70;;;3.50;94.60;;;;;;5005890;28;20636;-66
2022/03/20 01:00:17;;;;;;;4.80;1.47;;;3.50;95.60;;;;;;5006117;28;20189;-66
2022/03/20 01:02:45;;;;;;;1.30;1.20;;;3.40;94.90;;;;;;5006707;28;20252;-66
2022/03/20 01:05:12;;;;;;;3.57;1.40;;;3.40;94.40;;;;;;5005631;28;20200;-67
2022/03/20 01:07:40;;;;;;;2.80;1.30;;;3.40;94.50;;;;;;5006016;28;20189;-66
2022/03/20 01:10:08;;;;;;;3.30;1.60;;;3.40;94.80;;;;;;5005819;28;20208;-66
2022/03/20 01:12:37;;;;;;;4.90;1.50;;;3.50;94.60;;;;;;5007644;28;21025;-66
2022/03/20 01:15:10;;;;;;;2.00;1.37;;;3.40;95.40;;;;;;5007045;28;20204;-66
2022/03/20 01:17:37;;;;;;;3.63;1.57;;;3.30;94.90;;;;;;5005911;28;20196;-67
2022/03/20 01:20:08;;;;;;;2.47;1.50;;;3.30;94.80;;;;;;5006019;28;20216;-66
2022/03/20 01:22:36;;;;;;;2.80;1.40;;;3.30;93.90;;;;;;5009633;28;20227;-66
2022/03/20 01:25:04;;;;;;;2.90;1.60;;;3.40;94.50;;;;;;5005486;28;20181;-66
2022/03/20 01:27:30;;;;;;;1.73;1.10;;;3.40;95.30;;;;;;5022038;28;20185;-66
2022/03/20 01:29:56;;;;;;;2.07;1.50;;;3.30;95.30;;;;;;4988816;28;20745;-66
2022/03/20 01:32:23;;;;;;;1.90;1.50;;;3.40;95.20;;;;;;5005799;28;20196;-67
2022/03/20 01:34:50;;;;;;;2.67;1.60;;;3.40;95.00;;;;;;4989234;28;20287;-66
2022/03/20 01:37:16;;;;;;;3.30;1.70;;;3.40;94.80;;;;;;5004365;28;20239;-66
2022/03/20 01:39:42;;;;;;;7.30;1.90;;;3.40;95.10;;;;;;5001853;28;20201;-66
2022/03/20 01:42:09;;;;;;;5.67;1.57;;;3.40;94.60;;;;;;5004647;28;20267;-66
2022/03/20 01:44:36;;;;;;;3.57;1.50;;;3.40;94.70;;;;;;5003258;28;20196;-67
2022/03/20 01:47:08;;;;;;;5.57;1.70;;;3.50;94.50;;;;;;5005658;28;20263;-65
2022/03/20 01:49:35;;;;;;;4.40;1.70;;;3.50;94.70;;;;;;5006574;28;20197;-66
2022/03/20 01:52:10;;;;;;;2.97;1.50;;;3.50;95.00;;;;;;5003085;28;20181;-66
2022/03/20 01:54:39;;;;;;;4.63;1.50;;;3.50;94.60;;;;;;5023014;28;20192;-66
2022/03/20 01:57:07;;;;;;;2.70;1.80;;;3.50;95.10;;;;;;5006915;28;20202;-65
2022/03/20 01:59:34;;;;;;;3.30;1.70;;;3.50;95.20;;;;;;5006520;28;20279;-66
2022/03/20 02:02:05;;;;;;;4.87;1.77;;;3.60;95.30;;;;;;5001654;28;20205;-66
2022/03/20 02:04:36;;;;;;;2.33;1.70;;;3.60;95.50;;;;;;4998577;28;20184;-66
2022/03/20 02:07:03;;;;;;;4.53;1.70;;;3.60;95.90;;;;;;5000879;28;20676;-67
2022/03/20 02:09:31;;;;;;;3.90;1.50;;;3.50;96.10;;;;;;5007883;28;20185;-65
2022/03/20 02:11:59;;;;;;;3.27;1.70;;;3.60;95.50;;;;;;5007991;28;20284;-66
2022/03/20 02:14:27;;;;;;;6.03;1.90;;;3.60;95.80;;;;;;5006127;28;20177;-66
2022/03/20 02:16:54;;;;;;;2.43;1.67;;;3.60;95.90;;;;;;5007168;28;20274;-67
2022/03/20 02:19:21;;;;;;;3.03;1.93;;;3.60;96.00;;;;;;5007445;28;20216;-66
2022/03/20 02:21:50;;;;;;;4.00;1.77;;;3.60;95.70;;;;;;5007263;28;20192;-66
2022/03/20 02:24:41;;;;;;;3.27;1.70;;;3.60;96.10;;;;;;5008559;28;20197;-66
2022/03/20 02:27:18;;;;;;;2.60;1.47;;;3.60;96.60;;;;;;5005485;28;20278;-66
2022/03/20 02:29:57;;;;;;;2.50;1.37;;;3.60;96.00;;;;;;5006587;28;20196;-66
2022/03/20 02:32:29;;;;;;;4.37;1.70;;;3.60;96.20;;;;;;5008148;28;20260;-66
2022/03/20 02:35:05;;;;;;;4.40;1.90;;;3.60;96.10;;;;;;5005682;28;20180;-66
2022/03/20 02:37:33;;;;;;;3.40;1.63;;;3.60;96.00;;;;;;5006869;28;20204;-66
2022/03/20 02:40:02;;;;;;;3.27;1.87;;;3.60;96.10;;;;;;5006087;28;20632;-66
2022/03/20 02:42:29;;;;;;;3.23;1.90;;;3.70;97.00;;;;;;5006017;28;20217;-65
2022/03/20 02:45:07;;;;;;;3.60;1.90;;;3.60;96.20;;;;;;5007714;28;20188;-66
2022/03/20 02:47:43;;;;;;;2.73;1.60;;;3.60;95.80;;;;;;5006369;28;20192;-65
2022/03/20 02:50:21;;;;;;;2.53;1.63;;;3.60;96.30;;;;;;5005605;28;20829;-66
2022/03/20 02:52:58;;;;;;;2.57;1.50;;;3.60;96.20;;;;;;5002323;28;20193;-65
2022/03/20 02:55:40;;;;;;;4.00;1.70;;;3.60;96.00;;;;;;5023302;28;20201;-66
2022/03/20 02:58:10;;;;;;;4.13;1.87;;;3.60;96.00;;;;;;5005235;28;20196;-65
2022/03/20 03:00:40;;;;;;;4.63;2.00;;;3.60;96.20;;;;;;5004766;28;20196;-65
2022/03/20 03:03:11;;;;;;;3.13;1.77;;;3.60;96.50;;;;;;4998836;28;20219;-66
2022/03/20 03:05:39;;;;;;;3.13;1.70;;;3.60;96.40;;;;;;5007698;28;20184;-66
2022/03/20 03:10:57;;;;;;;4.20;1.57;;;3.50;96.40;;;;;;5006363;28;20189;-66
2022/03/20 03:13:29;;;;;;;6.50;1.97;;;3.50;96.40;;;;;;5024346;28;20219;-66
2022/03/20 03:16:01;;;;;;;5.03;1.87;;;3.50;95.90;;;;;;5010364;28;20188;-65
2022/03/20 03:18:28;;;;;;;3.60;1.60;;;3.50;95.80;;;;;;5024476;28;20192;-66
2022/03/20 03:20:54;;;;;;;4.47;1.70;;;3.50;95.40;;;;;;5011646;28;20279;-66
2022/03/20 03:23:21;;;;;;;1.73;1.50;;;3.50;95.20;;;;;;5011566;28;20221;-66
2022/03/20 03:25:48;;;;;;;2.77;1.70;;;3.50;95.50;;;;;;5010584;28;20197;-66
2022/03/20 03:28:14;;;;;;;4.10;1.90;;;3.50;96.00;;;;;;5008805;28;20581;-66
2022/03/20 03:30:45;;;;;;;2.17;1.47;;;3.50;96.00;;;;;;4993937;28;20794;-66
2022/03/20 03:33:13;;;;;;;3.23;1.67;;;3.50;96.30;;;;;;5010534;28;20246;-66
2022/03/20 03:35:42;;;;;;;3.63;1.97;;;3.50;96.10;;;;;;5010070;28;20192;-66
2022/03/20 03:38:13;;;;;;;1.67;1.33;;;3.50;96.80;;;;;;5010253;28;20637;-66
2022/03/20 03:40:41;;;;;;;3.20;1.60;;;3.50;96.10;;;;;;5010969;28;20196;-66
2022/03/20 03:43:09;;;;;;;2.17;1.43;;;3.50;96.00;;;;;;5001896;28;20229;-66
2022/03/20 03:45:39;;;;;;;4.80;1.50;;;3.50;96.60;;;;;;5004223;28;20624;-67
2022/03/20 03:48:06;;;;;;;3.73;1.60;;;3.50;96.20;;;;;;5010618;28;20204;-66
2022/03/20 03:50:38;;;;;;;3.30;1.50;;;3.50;96.30;;;;;;5009734;28;20573;-66
2022/03/20 03:53:05;;;;;;;4.63;1.40;;;3.50;96.10;;;;;;5009697;28;20188;-67
2022/03/20 03:55:32;;;;;;;3.47;1.60;;;3.50;96.10;;;;;;5008851;28;20189;-66
2022/03/20 03:57:59;;;;;;;2.87;1.43;;;3.50;96.10;;;;;;5001866;28;20204;-66
2022/03/20 04:00:27;;;;;;;2.60;1.40;;;3.50;96.40;;;;;;5008705;28;20188;-66
2022/03/20 04:02:53;;;;;;;6.20;1.80;;;3.50;96.30;;;;;;5010364;28;20217;-66
2022/03/20 04:05:20;;;;;;;3.77;1.53;;;3.50;96.40;;;;;;4992794;28;20634;-66
2022/03/20 04:07:47;;;;;;;2.03;1.40;;;3.50;95.90;;;;;;5009589;28;20638;-66
2022/03/20 04:10:17;;;;;;;5.73;1.73;;;3.50;96.00;;;;;;5008344;28;20276;-66
2022/03/20 04:12:45;;;;;;;4.40;1.50;;;3.50;96.50;;;;;;5007355;28;20254;-66
2022/03/20 04:15:13;;;;;;;4.63;2.07;;;3.50;96.40;;;;;;5010637;28;20208;-66
2022/03/20 04:17:42;;;;;;;4.30;1.40;;;3.50;96.50;;;;;;5024324;28;20223;-66
2022/03/20 04:20:12;;;;;;;3.23;1.60;;;3.50;96.10;;;;;;5009690;28;20191;-66
2022/03/20 04:23:43;;;;;;;2.87;1.53;;;3.60;96.00;;;;;;5025193;28;20232;-66
2022/03/20 04:25:39;;;;;;;2.17;1.50;;;3.60;96.50;;;;;;5008033;28;20200;-66
2022/03/20 04:28:06;;;;;;;3.70;1.57;;;3.60;96.80;;;;;;5008551;28;20625;-66
2022/03/20 04:30:35;;;;;;;3.27;1.70;;;3.60;96.50;;;;;;5025239;28;20268;-66
2022/03/20 04:33:01;;;;;;;6.53;1.70;;;3.60;96.40;;;;;;5008317;28;20193;-66
2022/03/20 04:35:28;;;;;;;3.53;1.47;;;3.60;96.30;;;;;;5010363;28;20193;-66
2022/03/20 04:37:57;;;;;;;2.93;1.33;;;3.60;96.00;;;;;;5008171;28;20196;-66
2022/03/20 04:40:23;;;;;;;2.37;1.60;;;3.70;95.80;;;;;;4992529;28;20262;-66
2022/03/20 04:42:49;;;;;;;7.40;1.50;;;3.70;95.90;;;;;;5009212;28;20705;-65
2022/03/20 04:45:16;;;;;;;3.37;1.60;;;3.70;95.60;;;;;;5007895;28;20642;-65
2022/03/20 04:58:43;;;;;;;3.40;1.60;;;3.80;96.50;;;;;;5022906;28;20226;-65
2022/03/20 05:01:10;;;;;;;3.00;1.30;;;3.90;97.00;;;;;;5008620;28;20223;-65
2022/03/20 05:03:36;;;;;;;3.60;1.53;;;3.90;96.80;;;;;;5009529;28;20795;-65
2022/03/20 05:06:05;;;;;;;3.40;1.40;;;4.00;96.40;;;;;;5007786;28;20208;-65
2022/03/20 05:08:35;;;;;;;3.17;1.60;;;4.00;95.90;;;;;;5008860;28;20262;-65
2022/03/20 05:13:48;;;;;;;4.50;1.77;;;4.20;96.00;;;;;;5006389;28;20247;-66
2022/03/20 05:16:14;;;;;;;3.30;1.50;;;4.30;96.30;;;;;;5008327;28;20463;-65
2022/03/20 05:18:40;;;;;;;3.00;1.70;;;4.40;96.70;;;;;;5008171;28;20269;-65
2022/03/20 05:21:10;;;;;;;3.57;1.57;;;4.40;96.40;;;;;;5009719;28;20912;-65
2022/03/20 05:23:37;;;;;;;8.63;1.60;;;4.50;96.20;;;;;;5008310;28;20711;-65
2022/03/20 05:26:04;;;;;;;2.00;1.23;;;4.50;96.10;;;;;;5002116;28;20185;-66
2022/03/20 05:28:30;;;;;;;2.53;1.43;;;4.60;96.30;;;;;;5007527;28;20196;-65
2022/03/20 05:30:57;;;;;;;2.50;1.53;;;4.60;96.80;;;;;;5007455;28;20177;-66
2022/03/20 05:33:23;;;;;;;1.63;1.30;;;4.60;97.20;;;;;;5007950;28;20279;-66
2022/03/20 05:35:49;;;;;;;2.50;1.43;;;4.70;97.30;;;;;;5009114;28;20216;-66
2022/03/20 05:38:16;;;;;;;3.67;1.60;;;4.70;96.50;;;;;;5006751;28;20200;-65
2022/03/20 05:40:44;;;;;;;3.40;1.50;;;4.70;96.80;;;;;;5007773;28;20196;-65
2022/03/20 05:43:11;;;;;;;3.50;1.53;;;4.80;98.10;;;;;;5006599;28;20271;-66
2022/03/20 05:45:39;;;;;;;3.17;1.57;;;4.90;97.30;;;;;;5007513;28;20197;-65
2022/03/20 05:48:08;;;;;;;5.17;1.43;;;4.90;97.30;;;;;;4990090;28;20200;-66
2022/03/20 05:50:35;;;;;;;3.10;1.30;;;5.00;97.60;;;;;;4997545;28;20745;-65
2022/03/20 05:53:02;;;;;;;2.33;1.50;;;5.00;97.60;;;;;;5007771;28;20256;-65
2022/03/20 05:58:13;;;;;;;6.83;1.60;;;5.10;98.10;;;;;;5006170;28;20189;-65
2022/03/20 06:00:41;;;;;;;2.50;1.50;;;5.20;98.50;;;;;;5007477;28;20292;-65
2022/03/20 06:03:12;;;;;;;3.13;1.50;;;5.20;98.40;;;;;;5006067;28;20240;-65
2022/03/20 06:05:40;;;;;;;3.67;1.57;;;5.20;97.10;;;;;;5023187;28;20331;-65
2022/03/20 06:08:07;;;;;;;2.93;1.53;;;5.30;97.20;;;;;;5007436;28;20270;-65
2022/03/20 06:10:34;;;;;;;6.07;1.70;;;;;;;;;;5006564;28;20188;-65
2022/03/20 06:13:05;;;;;;;3.67;1.60;;;5.50;96.10;;;;;;5006712;28;20191;-65
2022/03/20 06:15:32;;;;;;;6.17;1.73;;;5.50;96.40;;;;;;5007011;28;20275;-65
2022/03/20 06:18:03;;;;;;;2.80;1.43;;;5.60;95.90;;;;;;5023056;28;20188;-65
2022/03/20 06:20:30;;;;;;;3.83;1.40;;;5.70;96.50;;;;;;5007305;28;20239;-66
2022/03/20 06:22:56;;;;;;;2.90;1.70;;;5.70;96.40;;;;;;5007968;28;20649;-65
2022/03/20 06:25:22;;;;;;;2.90;1.40;;;5.70;96.90;;;;;;5005934;28;20211;-66
2022/03/20 06:27:52;;;;;;;2.67;1.40;;;5.70;96.70;;;;;;5007196;28;20192;-66
2022/03/20 06:30:21;;;;;;;1.90;1.20;;;5.80;96.80;;;;;;5007438;28;20216;-66
2022/03/20 06:32:48;;;;;;;3.93;1.83;;;5.80;96.70;;;;;;5021588;28;20205;-65
2022/03/20 06:35:18;;;;;;;3.33;1.80;;;5.90;97.20;;;;;;5007612;28;20203;-66
2022/03/20 06:37:49;;;;;;;2.93;1.63;;;5.90;96.70;;;;;;5006773;28;20867;-66
2022/03/20 06:40:17;;;;;;;4.30;1.60;;;6.00;97.10;;;;;;5006369;28;20553;-66
2022/03/20 06:42:44;;;;;;;2.00;1.60;;;6.10;96.90;;;;;;5006908;28;20650;-66
2022/03/20 06:45:13;;;;;;;3.43;1.47;;;6.10;97.00;;;;;;5007483;28;20201;-66
2022/03/20 06:47:43;;;;;;;4.13;1.37;;;6.20;97.00;;;;;;5009534;28;20274;-66
2022/03/20 06:50:12;;;;;;;3.87;1.57;;;6.10;95.50;;;;;;5014113;28;20216;-66
2022/03/20 06:52:39;;;;;;;5.20;1.70;;;6.20;97.00;;;;;;5028773;28;20204;-65
2022/03/20 06:55:07;;;;;;;2.60;1.33;;;6.20;97.00;;;;;;5028758;28;20223;-66
2022/03/20 06:57:35;;;;;;;3.27;1.90;;;6.30;96.10;;;;;;5011601;28;20193;-66
2022/03/20 07:00:05;;;;;;;6.40;1.63;;;6.30;96.60;;;;;;5029567;28;20191;-66
2022/03/20 07:02:31;;;;;;;2.73;1.60;;;6.50;96.80;;;;;;5013824;28;20210;-65
2022/03/20 07:04:57;;;;;;;4.63;1.60;;;6.50;96.90;;;;;;5013854;28;20207;-66
2022/03/20 07:07:24;;;;;;;2.67;1.50;;;6.50;96.70;;;;;;5013441;28;20189;-66
2022/03/20 07:09:51;;;;;;;2.77;1.50;;;6.60;96.80;;;;;;5012407;28;20200;-65
2022/03/20 07:12:17;;;;;;;2.23;1.53;;;6.70;96.80;;;;;;5011806;28;20615;-66
2022/03/20 07:14:45;;;;;;;2.70;1.53;;;6.70;96.50;;;;;;5001657;28;20191;-66
2022/03/20 07:17:16;;;;;;;2.33;1.30;;;6.80;96.00;;;;;;5027047;28;20189;-66
2022/03/20 07:19:44;;;;;;;3.43;1.60;;;6.90;95.00;;;;;;5007730;28;20185;-65
2022/03/20 07:22:14;;;;;;;3.87;1.80;;;6.90;94.90;;;;;;5009090;28;20180;-66
2022/03/20 07:24:43;;;;;;;3.23;1.60;;;6.90;96.10;;;;;;5009976;28;20196;-66
2022/03/20 07:29:57;;;;;;;3.50;2.00;;;7.00;94.80;;;;;;5011127;28;20200;-66
2022/03/20 07:32:24;;;;;;;3.23;1.77;;;7.00;95.30;;;;;;5013779;28;20288;-65
2022/03/20 07:34:51;;;;;;;3.20;1.67;;;7.10;95.60;;;;;;5014467;28;20744;-65
2022/03/20 07:37:18;;;;;;;3.87;1.50;;;7.20;95.40;;;;;;5012847;28;20208;-66
2022/03/20 07:39:51;;;;;;;4.80;1.37;;;7.20;94.90;;;;;;5014538;28;20267;-66
2022/03/20 07:42:19;;;;;;;3.27;1.47;;;7.20;94.70;;;;;;5012380;28;20188;-66
2022/03/20 07:44:46;;;;;;;2.80;1.57;;;7.30;94.70;;;;;;5029320;28;20649;-65
2022/03/20 07:47:24;;;;;;;4.07;1.43;;;7.30;94.90;;;;;;5013284;28;20726;-66
2022/03/20 07:49:51;;;;;;;3.10;1.60;;;7.30;94.80;;;;;;5013834;28;20189;-65
2022/03/20 07:52:19;;;;;;;3.03;1.60;;;7.40;94.50;;;;;;5011786;28;20911;-66
2022/03/20 07:54:46;;;;;;;4.27;1.57;;;7.40;94.50;;;;;;5011323;28;20660;-65
2022/03/20 07:57:14;;;;;;;2.07;1.70;;;7.40;93.10;;;;;;5010776;28;20243;-66
2022/03/20 07:59:42;;;;;;;3.73;2.30;;;7.30;93.20;;;;;;5008421;28;20185;-66
2022/03/20 08:02:08;;;;;;;2.37;1.57;;;7.30;93.90;;;;;;5009397;28;20654;-66
2022/03/20 08:04:34;;;;;;;2.23;1.47;;;7.40;94.50;;;;;;5010045;28;20649;-66
2022/03/20 08:07:02;;;;;;;2.07;1.50;;;7.50;94.50;;;;;;5008577;28;20184;-66
2022/03/20 08:09:28;;;;;;;1.63;1.37;;;7.60;94.00;;;;;;5024288;28;20201;-66
2022/03/20 08:11:56;;;;;;;4.43;1.60;;;7.60;94.20;;;;;;5010159;28;20193;-66
2022/03/20 08:14:23;;;;;;;3.13;1.60;;;7.60;94.40;;;;;;5024453;28;20638;-66
2022/03/20 08:16:51;;;;;;;4.20;2.00;;;7.50;93.60;;;;;;5023046;28;20209;-65
2022/03/20 08:19:19;;;;;;;2.63;1.57;;;7.60;94.50;;;;;;5010406;28;20204;-66
2022/03/20 08:21:49;;;;;;;3.70;1.43;;;7.60;92.80;;;;;;5008344;28;20201;-66
2022/03/20 08:24:19;;;;;;;2.40;1.50;;;7.60;93.10;;;;;;5010607;28;20224;-65
2022/03/20 08:26:46;;;;;;;5.27;1.70;;;7.70;93.60;;;;;;5008346;28;20197;-66
2022/03/20 08:29:14;;;;;;;2.87;1.50;;;7.80;93.60;;;;;;5007121;28;20278;-66
2022/03/20 08:31:47;;;;;;;2.17;1.40;;;7.90;93.40;;;;;;5010252;28;20744;-66
2022/03/20 08:34:15;;;;;;;2.23;1.17;;;7.90;93.90;;;;;;5010052;28;20203;-66
2022/03/20 08:36:45;;;;;;;2.43;1.40;;;7.90;92.40;;;;;;5009369;28;20220;-65
2022/03/20 08:39:12;;;;;;;3.30;1.37;;;7.90;92.70;;;;;;5009392;28;20212;-66
2022/03/20 08:41:39;;;;;;;3.57;1.70;;;8.00;92.60;;;;;;5024037;28;20315;-66
2022/03/20 08:44:08;;;;;;;2.27;1.50;;;8.00;92.60;;;;;;4997333;28;20232;-66
2022/03/20 08:46:34;;;;;;;2.80;1.50;;;8.00;93.00;;;;;;5001011;28;20192;-66
2022/03/20 08:49:05;;;;;;;3.67;1.87;;;8.00;93.00;;;;;;5004122;28;20189;-65
2022/03/20 08:51:38;;;;;;;4.80;2.00;;;8.10;93.60;;;;;;5008741;28;20220;-66
2022/03/20 08:54:05;;;;;;;2.00;1.47;;;8.20;93.60;;;;;;5009655;28;20205;-66
2022/03/20 08:56:33;;;;;;;2.77;1.70;;;8.30;92.30;;;;;;5009120;28;20196;-66
2022/03/20 08:59:00;;;;;;;2.77;1.83;;;8.30;92.70;;;;;;5004636;28;20196;-65
2022/03/20 09:01:26;;;;;;;3.00;1.63;;;8.40;93.10;;;;;;5008999;28;20185;-66
2022/03/20 09:04:30;;;;;;;2.60;1.57;;;8.40;92.20;;;;;;5008080;28;20212;-66
2022/03/20 09:06:56;;;;;;;1.93;1.43;;;8.50;91.70;;;;;;5006748;28;20199;-66
2022/03/20 09:09:23;;;;;;;2.13;1.20;;;8.60;92.30;;;;;;5007253;28;20185;-66
2022/03/20 09:11:49;;;;;;;2.43;1.67;;;8.50;91.70;;;;;;5008916;28;20207;-66
2022/03/20 09:14:16;;;;;;;2.47;1.70;;;8.60;92.60;;;;;;5021979;28;20677;-66
2022/03/20 09:19:27;;;;;;;1.30;1.13;;;8.70;92.90;;;;;;5014848;28;20271;-65
2022/03/20 09:21:53;;;;;;;5.80;1.33;;;8.80;91.90;;;;;;5004825;28;20185;-65
2022/03/20 09:24:20;;;;;;;3.53;1.43;;;8.90;92.30;;;;;;5003870;28;20546;-65
2022/03/20 09:26:46;;;;;;;4.07;1.40;;;9.00;91.80;;;;;;5018774;28;20775;-65
2022/03/20 09:29:15;;;;;;;2.10;1.50;;;9.00;90.80;;;;;;5020893;28;20287;-66
2022/03/20 09:31:42;;;;;;;1.93;1.30;;;9.10;91.20;;;;;;5002189;28;20971;-65
2022/03/20 09:34:09;;;;;;;1.40;1.20;;;9.20;90.20;;;;;;5007733;28;20625;-65
2022/03/20 09:36:36;;;;;;;2.90;1.30;;;9.30;90.20;;;;;;4989899;28;20239;-66
2022/03/20 09:39:03;;;;;;;2.10;1.20;;;9.40;86.50;;;;;;4996045;28;20244;-66
2022/03/20 09:41:33;;;;;;;2.17;1.00;;;9.50;87.50;;;;;;5006742;28;20189;-66
2022/03/20 09:44:05;;;;;;;1.50;1.00;;;;;;;;;;5003780;28;20909;-65
2022/03/20 09:46:33;;;;;;;2.00;1.17;;;;;;;;;;5005135;28;20209;-66
2022/03/20 09:49:03;;;;;;;3.50;1.30;;;;;;;;;;4994163;28;20193;-66
2022/03/20 09:51:29;;;;;;;2.23;1.20;;;;;;;;;;5007471;28;20240;-66
2022/03/20 09:53:56;;;;;;;1.93;1.20;;;;;;;;;;5002298;28;20232;-66
2022/03/20 09:56:27;;;;;;;1.60;1.03;;;;;;;;;;5020469;28;20188;-67
2022/03/20 09:58:53;;;;;;;2.23;1.40;;;;;;;;;;4989853;28;20217;-66
2022/03/20 10:01:21;;;;;;;2.40;1.60;;;;;;;;;;5005393;28;20204;-66
2022/03/20 10:03:47;;;;;;;2.50;1.40;;;;;;;;;;5002362;28;20221;-66
2022/03/20 10:06:16;;;;;;;2.10;1.13;;;;;;;;;;5003557;28;20303;-66
2022/03/20 10:08:59;;;;;;;1.90;1.20;;;;;;;;;;5007819;28;20196;-66
2022/03/20 10:11:26;;;;;;;3.10;1.30;;;;;;;;;;5007159;28;20673;-66
2022/03/20 10:14:20;;;;;;;2.10;1.30;;;;;;;;;;5017669;28;20235;-66
2022/03/20 10:17:09;;;;;;;4.13;1.30;;;18.80;58.30;;;;;;5016344;28;20207;-66
2022/03/20 10:19:36;;;;;;;2.90;1.47;;;17.00;59.30;;;;;;5007662;28;20211;-66
2022/03/20 10:22:06;;;;;;;2.43;1.63;;;15.30;58.70;;;;;;5023107;28;20279;-67
2022/03/20 10:24:37;;;;;;;4.57;2.90;;;14.30;62.30;;;;;;5018146;28;20224;-67
2022/03/20 10:27:03;;;;;;;6.50;3.80;;;14.40;62.80;;;;;;4999568;28;20196;-66
2022/03/20 10:29:33;;;;;;;8.10;4.47;;;15.60;61.50;;;;;;5003812;28;20303;-67
2022/03/20 10:32:11;;;;;;;3.13;1.90;;;19.10;61.50;;;;;;5005202;28;20230;-66
2022/03/20 10:35:01;;;;;;;2.93;1.50;;;19.00;59.80;;;;;;5003443;28;20627;-66
2022/03/20 10:37:55;;;;;;;2.50;1.37;;;15.50;60.70;;;;;;5000557;28;20227;-66
2022/03/20 10:40:29;;;;;;;2.17;1.30;;;13.90;62.00;;;;;;5004026;28;20197;-65
2022/03/20 10:43:17;;;;;;;2.27;1.30;;;13.10;64.40;;;;;;5005717;28;20751;-66
2022/03/20 10:46:01;;;;;;;3.50;1.50;;;12.60;63.80;;;;;;5011322;28;20272;-66
2022/03/20 10:48:35;;;;;;;1.70;1.20;;;12.40;67.90;;;;;;5004960;28;20775;-66
2022/03/20 10:51:04;;;;;;;1.97;1.20;;;12.40;64.70;;;;;;5005697;28;20195;-65
2022/03/20 10:53:30;;;;;;;4.50;1.40;;;12.10;66.40;;;;;;5003171;28;20200;-66
2022/03/20 10:56:08;;;;;;;2.93;1.50;;;12.00;67.30;;;;;;5001657;28;20592;-66
2022/03/20 10:58:40;;;;;;;3.87;1.50;;;11.80;67.10;;;;;;5004559;28;20201;-66
2022/03/20 11:01:08;;;;;;;2.47;1.37;;;11.60;66.80;;;;;;5007602;28;20201;-66
2022/03/20 11:03:39;;;;;;;3.43;1.20;;;11.50;70.80;;;;;;5007754;28;20839;-66
2022/03/20 11:06:11;;;;;;;3.03;1.40;;;11.50;68.20;;;;;;5012128;28;20219;-66
2022/03/20 11:08:38;;;;;;;4.33;1.53;;;11.50;69.40;;;;;;5007521;28;20227;-66
2022/03/20 11:11:06;;;;;;;2.43;1.47;;;;;;;;;;5009317;28;20192;-66
2022/03/20 11:13:35;;;;;;;3.27;1.87;;;;;;;;;;5001083;28;20188;-66
2022/03/20 11:16:06;;;;;;;1.77;1.33;;;;;;;;;;5003917;28;20855;-66
2022/03/20 11:18:38;;;;;;;6.23;1.50;;;;;;;;;;5020422;28;20212;-66
2022/03/20 11:21:06;;;;;;;1.97;1.40;;;;;;;;;;5004671;28;20192;-66
2022/03/20 11:23:35;;;;;;;1.60;1.20;;;;;;;;;;5006920;28;20263;-66
2022/03/20 11:26:03;;;;;;;1.60;1.37;;;;;;;;;;5007163;28;20200;-66
2022/03/20 11:28:37;;;;;;;1.97;1.20;;;;;;;;;;5019101;28;20646;-65
2022/03/20 11:31:04;;;;;;;1.70;1.30;;;;;;;;;;5000790;28;20223;-66
2022/03/20 11:33:31;;;;;;;2.80;1.10;;;;;;;;;;5000700;28;20188;-66
2022/03/20 11:36:02;;;;;;;1.50;1.17;;;;;;;;;;5003209;28;20223;-65
2022/03/20 11:38:31;;;;;;;1.57;1.03;;;;;;;;;;5019371;28;20201;-66
2022/03/20 11:41:19;;;;;;;1.73;1.10;;;;;;;;;;5009521;28;21147;-65
2022/03/20 11:44:11;;;;;;;2.10;1.20;;;;;;;;;;5008989;28;20255;-65
2022/03/20 11:46:37;;;;;;;6.33;1.20;;;;;;;;;;5009808;28;20205;-65
2022/03/20 11:49:17;;;;;;;1.67;1.07;;;;;;;;;;5008675;28;20181;-64
2022/03/20 11:52:02;;;;;;;2.17;1.40;;;;;;;;;;5010512;28;20207;-66
2022/03/20 11:54:31;;;;;;;3.17;1.20;;;;;;;;;;5008603;28;20207;-66
2022/03/20 11:56:59;;;;;;;2.23;1.50;;;;;;;;;;5009085;28;20197;-66
2022/03/20 11:59:48;;;;;;;2.60;1.50;;;;;;;;;;5011125;28;20549;-66
2022/03/20 12:02:17;;;;;;;3.53;1.60;;;;;;;;;;5007706;28;20268;-66
2022/03/20 12:05:08;;;;;;;1.20;1.00;;;;;;;;;;5025501;28;20192;-66
2022/03/20 12:08:04;;;;;;;2.47;1.20;;;;;;;;;;5002938;28;20250;-66
2022/03/20 12:10:56;;;;;;;1.87;1.20;;;;;;;;;;5011178;28;20226;-65
2022/03/20 12:13:29;;;;;;;2.53;1.10;;;;;;;;;;5009397;28;20181;-65
2022/03/20 12:15:55;;;;;;;3.87;1.37;;;;;;;;;;5010292;28;20251;-66
2022/03/20 12:18:22;;;;;;;3.80;1.30;;;;;;;;;;5009914;28;20200;-65
2022/03/20 12:20:51;;;;;;;2.00;1.27;;;;;;;;;;5010900;28;20665;-66
2022/03/20 12:23:40;;;;;;;2.20;1.40;;;;;;;;;;5009283;28;20246;-65
2022/03/20 12:26:31;;;;;;;1.90;1.30;;;;;;;;;;5010623;28;20239;-66
2022/03/20 12:29:27;;;;;;;2.17;1.40;;;;;;;;;;5008424;28;20514;-66
2022/03/20 12:31:58;;;;;;;4.30;1.30;;;;;;;;;;5009114;28;20189;-66
2022/03/20 12:34:26;;;;;;;3.70;1.33;;;;;;;;;;5010933;28;20201;-65
2022/03/20 12:36:53;;;;;;;1.73;1.30;;;;;;;;;;5023525;28;20217;-66
2022/03/20 12:39:54;;;;;;;2.07;1.30;;;;;;;;;;5010569;28;20756;-65
2022/03/20 12:42:22;;;;;;;2.47;1.33;;;;;;;;;;5010597;28;20578;-65
2022/03/20 12:44:51;;;;;;;4.60;1.43;;;;;;;;;;5010172;28;20201;-65
2022/03/20 12:47:21;;;;;;;5.03;1.40;;;;;;;;;;5009694;28;20200;-66
2022/03/20 12:50:12;;;;;;;2.07;1.20;;;;;;;;;;5009950;28;20193;-66
2022/03/20 12:52:40;;;;;;;1.83;1.17;;;;;;;;;;5008039;28;20565;-66
2022/03/20 12:55:09;;;;;;;1.77;1.10;;;;;;;;;;5009905;28;20537;-66
2022/03/20 12:57:45;;;;;;;1.10;0.90;;;;;;;;;;5008476;28;20220;-65
2022/03/20 13:00:18;;;;;;;1.40;1.13;;;;;;;;;;5024265;28;20196;-66
2022/03/20 13:03:11;;;;;;;2.63;1.30;;;;;;;;;;5025733;28;20220;-66
2022/03/20 13:05:46;;;;;;;2.30;1.30;;;;;;;;;;5009238;28;20208;-66
2022/03/20 13:08:26;;;;;;;1.63;1.07;;;;;;;;;;5009283;28;20188;-66
2022/03/20 13:10:55;;;;;;;3.93;1.20;;;;;;;;;;5010358;28;20251;-66
2022/03/20 13:13:28;;;;;;;2.10;1.00;;;;;;;;;;5023941;28;20673;-66
2022/03/20 13:15:54;;;;;;;2.40;1.10;;;;;;;;;;5009977;28;20201;-66
2022/03/20 13:18:27;;;;;;;2.47;1.13;;;;;;;;;;5007675;28;20184;-66
2022/03/20 13:20:54;;;;;;;1.83;1.20;;;;;;;;;;5009694;28;20192;-66
2022/03/20 13:23:23;;;;;;;2.07;1.27;;;;;;;;;;5008592;28;20212;-66
2022/03/20 13:25:57;;;;;;;3.63;1.17;;;;;;;;;;5008642;28;20193;-65
2022/03/20 13:28:29;;;;;;;1.50;1.10;;;;;;;;;;5008422;28;20207;-65
2022/03/20 13:31:17;;;;;;;2.97;1.27;;;;;;;;;;5008469;28;20216;-65
2022/03/20 13:33:59;;;;;;;2.10;1.37;;;;;;;;;;5009329;28;20243;-65
2022/03/20 13:36:36;;;;;;;2.57;1.20;;;;;;;;;;5008021;28;20327;-65
2022/03/20 13:39:10;;;;;;;2.07;1.27;;;;;;;;;;5006964;28;20602;-66
2022/03/20 13:41:42;;;;;;;2.30;1.00;;;;;;;;;;5009168;28;20193;-66
2022/03/20 13:44:11;;;;;;;1.80;1.20;;;;;;;;;;5008658;28;20224;-66
2022/03/20 13:46:38;;;;;;;2.57;1.43;;;;;;;;;;5008856;28;20189;-66
2022/03/20 13:49:13;;;;;;;1.43;1.03;;;;;;;;;;4991556;28;20189;-66
2022/03/20 13:51:45;;;;;;;1.47;1.20;;;;;;;;;;5009167;28;20200;-66
2022/03/20 13:54:17;;;;;;;1.80;1.10;;;;;;;;;;5009471;28;20215;-66
2022/03/20 13:56:46;;;;;;;1.87;1.10;;;;;;;;;;5008608;28;20193;-66
2022/03/20 13:59:16;;;;;;;1.97;1.10;;;;;;;;;;5006604;28;20189;-66
2022/03/20 14:01:47;;;;;;;2.23;1.20;;;;;;;;;;5008828;28;20280;-66